Flight Track Log - Related Links

Times and Time Zones

All times are in EDT time to prevent confusion due to time zone crossing. See the SWA720 flight status page for this flight to view local times or setup timezone preferences in your user account.

Time Position Orientation Groundspeed Altitude Reporting Facility
EDT Latitude Longitude Course Direction KTS MPH feet Rate Location/Type
Sat 10:25:08 PM 33.4333 -112.0333 250° West 183 211 2,000  Level Phoenix TRACON
Sat 10:25:34 PM 33.4261 -112.0575 250° West 178 205 2,700 2,023 Climbing Albuquerque Center
Sat 10:26:34 PM 33.4053 -112.1269 250° West 218 251 4,900 2,579 Climbing Albuquerque Center
Sat 10:27:35 PM 33.3617 -112.1903 231° Southwest 264 304 7,900 2,852 Climbing Albuquerque Center
Sat 10:28:36 PM 33.2875 -112.2119 194° South 275 316 10,700 2,754 Climbing Albuquerque Center
Sat 10:29:37 PM 33.2192 -112.2606 211° Southwest 299 344 13,500 1,721 Climbing Albuquerque Center
Sat 10:30:38 PM 33.1647 -112.3447 232° Southwest 325 374 14,200 1,339 Climbing Albuquerque Center
Sat 10:31:38 PM 33.0950 -112.4564 233° Southwest 385 443 16,200 2,182 Climbing Albuquerque Center
Sat 10:32:39 PM 33.0303 -112.5567 232° Southwest 385 443 18,600 1,918 Climbing Albuquerque Center
Sat 10:33:40 PM 32.9661 -112.6608 234° Southwest 390 449 20,100 1,475 Climbing Albuquerque Center
Sat 10:34:41 PM 32.9406 -112.7906 257° West 403 464 21,600 1,426 Climbing Albuquerque Center
Sat 10:35:42 PM 32.9217 -112.9236 260° West 409 471 23,000 1,438 Climbing Albuquerque Center
Sat 10:36:42 PM 32.9044 -113.0572 261° West 412 474 24,500 1,587 Climbing Albuquerque Center
Sat 10:37:43 PM 32.8861 -113.1914 261° West 414 476 26,200 1,623 Climbing Albuquerque Center
Sat 10:38:44 PM 32.8678 -113.3250 261° West 413 475 27,800 1,721 Climbing Albuquerque Center
Sat 10:39:45 PM 32.8497 -113.4578 261° West 411 473 29,700 1,934 Climbing Albuquerque Center
Sat 10:40:45 PM 32.8275 -113.6117 260° West 399 459 31,700 1,091 Climbing Albuquerque Center
Sat 10:41:46 PM 32.8086 -113.7375 260° West 391 450 31,900 98 Climbing Albuquerque Center
Sat 10:42:47 PM 32.7922 -113.8636 261° West 388 447 31,900  Level Albuquerque Center
Sat 10:43:48 PM 32.7739 -113.9886 260° West 387 445 31,900  Level Albuquerque Center
Sat 10:44:48 PM 32.7750 -114.1150 271° West 385 443 31,900  Level Albuquerque Center
Sat 10:45:49 PM 32.7733 -114.2425 269° West 385 443 31,900  Level Albuquerque Center
Sat 10:46:50 PM 32.7714 -114.3694 269° West 385 443 31,900  Level Albuquerque Center
Sat 10:47:50 PM 32.7681 -114.4961 268° West 385 443 31,900 -462 Level Albuquerque Center
Sat 10:49:00 PM 32.7664 -114.6325 269° West 387 445 30,900 -962 Descending Los Center
Sat 10:50:01 PM 32.7647 -114.7908 269° West 398 458 29,800 -1,024 Descending Los Center
Sat 10:51:03 PM 32.7622 -114.9247 269° West 404 465 28,800 -927 Descending Los Center
Sat 10:52:04 PM 32.7583 -115.0608 268° West 411 473 27,900 -934 Descending Los Center
Sat 10:53:05 PM 32.7553 -115.1978 269° West 415 478 26,900 -984 Descending Los Center
Sat 10:54:06 PM 32.7522 -115.3350 269° West 416 479 25,900 -984 Descending Los Center
Sat 10:55:07 PM 32.7492 -115.4736 269° West 421 484 24,900 -976 Descending Los Center
Sat 10:56:09 PM 32.7497 -115.6114 270° West 420 483 23,900 -1,024 Descending Los Center
Sat 10:57:10 PM 32.7536 -115.7447 272° West 408 470 22,800 -1,388 Descending Los Center
Sat 10:58:23 PM 32.7578 -115.9008 272° West 397 457 20,800 -2,222 Descending Los Center
Sat 10:59:25 PM 32.7611 -116.0286 272° West 389 448 17,800 -2,927 Descending Los Center
Sat 11:00:26 PM 32.7644 -116.1706 272° West 359 413 14,800 -1,967 Descending Los Center
Sat 11:01:27 PM 32.7661 -116.2808 271° West 334 384 13,800 -1,475 Descending Los Center
Sat 11:02:28 PM 32.7517 -116.3864 261° West 322 371 11,800 -2,000 Descending Los Center
Sat 11:03:30 PM 32.7367 -116.4906 260° West 318 366 9,700 -976 Descending Los Center
Sat 11:04:31 PM 32.7233 -116.5831 260° West 290 334 9,800 -738 Climbing Los Center
Sat 11:05:32 PM 32.7117 -116.6714 261° West 276 318 8,200 -1,475 Descending Los Center
Sat 11:06:33 PM 32.7094 -116.7581 268° West 267 307 6,800 -1,279 Descending Los Center
Sat 11:07:34 PM 32.7025 -116.8400 264° West 255 293 5,600 -1,052 Descending Los Center
Sat 11:08:10 PM 32.6833 -116.8833 242° Southwest 226 260 5,100 -1,000 Descending Southern TRACON
Sat 11:09:10 PM 32.6833 -116.9500 270° West 212 244 4,000 -1,050 Descending Southern TRACON
Sat 11:10:10 PM 32.6833 -117.0167 270° West 193 222 3,000 -1,000 Descending Southern TRACON
Sat 11:11:10 PM 32.7000 -117.0667 292° West 177 204 2,000 -900 Descending Southern TRACON
Sat 11:12:10 PM 32.7167 -117.1167 292° West 152 175 1,200 -791 Descending Southern TRACON
Sat 11:12:41 PM 32.7194 -117.1353 280° West 157 181 800 -774 Descending Los Center
Sat 11:15:00 PM 32.7333 -117.1833 281° West  Level FlightAware

Login

Don't have an account? Register now (free) for customized features, flight alerts, and more!